createdAt,value
2023-03-12T00:01:14.442Z,-3.55
2023-03-12T00:03:42.569Z,-3.61
2023-03-12T00:06:11.270Z,-3.64
2023-03-12T00:08:39.474Z,-3.71
2023-03-12T00:11:09.141Z,-3.76
2023-03-12T00:13:37.287Z,-3.74
2023-03-12T00:16:10.068Z,-3.78
2023-03-12T00:18:38.392Z,-3.71
2023-03-12T00:21:06.874Z,-3.58
2023-03-12T00:23:34.997Z,-3.58
2023-03-12T00:26:03.627Z,-3.26
2023-03-12T00:28:31.588Z,-3.40
2023-03-12T00:30:59.928Z,-3.55
2023-03-12T00:33:29.835Z,-3.58
2023-03-12T00:36:00.819Z,-3.48
2023-03-12T00:38:28.751Z,-3.35
2023-03-12T00:40:56.825Z,-3.27
2023-03-12T00:43:24.764Z,-3.42
2023-03-12T00:45:52.728Z,-3.61
2023-03-12T00:48:20.772Z,-3.77
2023-03-12T00:50:50.032Z,-3.63
2023-03-12T00:53:17.936Z,-3.37
2023-03-12T00:55:46.024Z,-3.34
2023-03-12T00:58:13.988Z,-3.54
2023-03-12T01:00:41.945Z,-3.63
2023-03-12T01:03:09.867Z,-3.64
2023-03-12T01:05:40.640Z,-3.70
2023-03-12T01:08:10.634Z,-3.74
2023-03-12T01:10:42.096Z,-3.85
2023-03-12T01:13:10.451Z,-3.78
2023-03-12T01:15:38.470Z,-3.63
2023-03-12T01:18:06.545Z,-3.71
2023-03-12T01:20:34.536Z,-3.84
2023-03-12T01:23:02.475Z,-3.93
2023-03-12T01:25:31.771Z,-4.02
2023-03-12T01:27:59.664Z,-4.14
2023-03-12T01:30:28.031Z,-4.23
2023-03-12T01:32:56.011Z,-4.09
2023-03-12T01:35:23.960Z,-4.31
2023-03-12T01:37:53.065Z,-4.22
2023-03-12T01:40:25.434Z,-4.29
2023-03-12T01:42:55.409Z,-4.26
2023-03-12T01:46:12.252Z,-4.30
2023-03-12T01:48:42.910Z,-4.34
2023-03-12T01:51:11.880Z,-4.37
2023-03-12T01:53:40.285Z,-4.38
2023-03-12T01:56:08.849Z,-4.30
2023-03-12T01:58:39.430Z,-4.32
2023-03-12T02:01:08.842Z,-4.28
2023-03-12T02:03:37.172Z,-4.23
2023-03-12T02:06:08.455Z,-4.29
2023-03-12T02:08:38.601Z,-4.33
2023-03-12T02:11:06.650Z,-4.30
2023-03-12T02:13:34.834Z,-4.29
2023-03-12T02:16:04.657Z,-4.30
2023-03-12T02:18:32.705Z,-4.12
2023-03-12T02:21:09.108Z,-4.26
2023-03-12T02:23:41.245Z,-4.38
2023-03-12T02:26:11.402Z,-4.36
2023-03-12T02:28:44.022Z,-4.22
2023-03-12T02:31:14.712Z,-4.06
2023-03-12T02:33:43.098Z,-4.03
2023-03-12T02:36:11.024Z,-4.16
2023-03-12T02:38:43.013Z,-4.16
2023-03-12T02:41:19.009Z,-4.32
2023-03-12T02:43:49.962Z,-4.37
2023-03-12T02:46:18.064Z,-4.37
2023-03-12T02:48:46.003Z,-4.54
2023-03-12T02:51:13.946Z,-4.74
2023-03-12T02:53:41.874Z,-4.88
2023-03-12T02:56:09.825Z,-4.96
2023-03-12T02:58:39.147Z,-5.04
2023-03-12T03:01:07.127Z,-5.01
2023-03-12T03:03:35.067Z,-4.95
2023-03-12T03:06:03.048Z,-5.01
2023-03-12T03:08:30.978Z,-5.01
2023-03-12T03:10:59.154Z,-5.16
2023-03-12T03:13:27.056Z,-5.18
2023-03-12T03:15:57.765Z,-5.06
2023-03-12T03:18:25.954Z,-4.92
2023-03-12T03:20:57.510Z,-4.93
2023-03-12T03:23:25.791Z,-5.13
2023-03-12T03:25:54.144Z,-5.13
2023-03-12T03:28:22.521Z,-5.04
2023-03-12T03:30:50.598Z,-5.07
2023-03-12T03:33:19.907Z,-5.10
2023-03-12T03:35:49.111Z,-5.18
2023-03-12T03:38:17.558Z,-5.27
2023-03-12T03:40:45.467Z,-5.31
2023-03-12T03:43:13.379Z,-5.48
2023-03-12T03:45:41.330Z,-5.38
2023-03-12T03:48:09.249Z,-5.00
2023-03-12T03:50:39.259Z,-4.97
2023-03-12T03:53:07.606Z,-5.07
2023-03-12T03:55:37.544Z,-5.29
2023-03-12T03:58:05.924Z,-5.52
2023-03-12T04:00:34.128Z,-5.57
2023-03-12T04:03:02.124Z,-5.56
2023-03-12T04:05:30.314Z,-5.55
2023-03-12T04:08:03.276Z,-5.66
2023-03-12T04:10:31.410Z,-5.64
2023-03-12T04:12:59.606Z,-5.69
2023-03-12T04:15:27.640Z,-5.64
2023-03-12T04:17:55.796Z,-5.70
2023-03-12T04:20:23.882Z,-5.78
2023-03-12T04:22:51.799Z,-5.80
2023-03-12T04:25:21.166Z,-5.71
2023-03-12T04:27:49.124Z,-5.46
2023-03-12T04:30:17.162Z,-5.59
2023-03-12T04:32:45.144Z,-5.72
2023-03-12T04:35:13.078Z,-5.72
2023-03-12T04:37:41.049Z,-5.53
2023-03-12T04:40:10.061Z,-5.44
2023-03-12T04:42:39.511Z,-5.55
2023-03-12T04:45:08.785Z,-5.69
2023-03-12T04:47:36.713Z,-5.72
2023-03-12T04:50:04.891Z,-5.85
2023-03-12T04:52:32.854Z,-5.84
2023-03-12T04:55:00.838Z,-5.79
2023-03-12T04:57:28.878Z,-5.46
2023-03-12T04:59:58.250Z,-5.57
2023-03-12T05:02:26.314Z,-5.76
2023-03-12T05:04:57.184Z,-5.84
2023-03-12T05:07:25.152Z,-5.83
2023-03-12T05:09:53.121Z,-5.81
2023-03-12T05:12:21.092Z,-5.82
2023-03-12T05:14:49.007Z,-5.64
2023-03-12T05:17:18.324Z,-5.65
2023-03-12T05:19:46.570Z,-5.76
2023-03-12T05:22:14.547Z,-5.82
2023-03-12T05:24:42.914Z,-5.74
2023-03-12T05:27:11.649Z,-5.91
2023-03-12T05:29:39.789Z,-5.84
2023-03-12T05:32:08.617Z,-5.60
2023-03-12T05:34:37.978Z,-5.54
2023-03-12T05:37:06.169Z,-5.57
2023-03-12T05:39:34.201Z,-5.57
2023-03-12T05:42:02.551Z,-5.61
2023-03-12T05:44:30.521Z,-5.50
2023-03-12T05:46:59.138Z,-5.30
2023-03-12T05:49:27.305Z,-5.18
2023-03-12T05:51:56.645Z,-5.03
2023-03-12T05:54:24.699Z,-5.00
2023-03-12T05:56:52.681Z,-4.70
2023-03-12T05:59:20.718Z,-4.35
2023-03-12T06:01:48.782Z,-4.34
2023-03-12T06:04:16.751Z,-4.26
2023-03-12T06:06:44.660Z,-4.06
2023-03-12T06:09:14.134Z,-3.79
2023-03-12T06:11:42.068Z,-3.62
2023-03-12T06:14:10.871Z,-3.44
2023-03-12T06:16:38.826Z,-3.19
2023-03-12T06:19:07.736Z,-2.95
2023-03-12T06:21:36.883Z,-2.99
2023-03-12T06:24:05.192Z,-2.73
2023-03-12T06:26:34.596Z,-2.54
2023-03-12T06:29:02.639Z,-2.32
2023-03-12T06:31:30.653Z,-2.22
2023-03-12T06:33:58.719Z,-2.49
2023-03-12T06:36:26.791Z,-2.39
2023-03-12T06:38:57.095Z,-2.34
2023-03-12T06:41:25.336Z,-2.16
2023-03-12T06:43:54.633Z,-2.01
2023-03-12T06:46:25.196Z,-1.77
2023-03-12T06:48:53.279Z,-1.70
2023-03-12T06:51:21.251Z,-1.30
2023-03-12T06:53:49.286Z,-0.85
2023-03-12T06:56:17.640Z,-0.57
2023-03-12T06:58:46.094Z,-0.04
2023-03-12T07:01:15.434Z,0.13
2023-03-12T07:03:43.380Z,0.03
2023-03-12T07:06:15.396Z,-0.06
2023-03-12T07:08:43.597Z,0.10
2023-03-12T07:11:11.641Z,0.32
2023-03-12T07:13:39.669Z,0.71
2023-03-12T07:16:08.869Z,0.76
2023-03-12T07:18:38.306Z,0.48
2023-03-12T07:21:07.000Z,0.05
2023-03-12T07:23:35.007Z,0.05
2023-03-12T07:26:05.239Z,0.27
2023-03-12T07:28:33.168Z,-0.09
2023-03-12T07:31:02.230Z,-0.15
2023-03-12T07:33:30.339Z,0.12
2023-03-12T07:36:00.302Z,0.30
2023-03-12T07:38:28.598Z,0.71
2023-03-12T07:40:58.095Z,0.81
2023-03-12T07:43:26.341Z,0.68
2023-03-12T07:45:54.431Z,0.91
2023-03-12T07:48:22.449Z,0.93
2023-03-12T07:50:50.938Z,1.05
2023-03-12T07:53:20.340Z,0.75
2023-03-12T07:55:48.816Z,0.72
2023-03-12T07:58:17.423Z,0.82
2023-03-12T08:00:45.672Z,1.03
2023-03-12T08:03:13.837Z,1.32
2023-03-12T08:05:42.009Z,1.22
2023-03-12T08:08:10.126Z,1.70
2023-03-12T08:10:39.501Z,1.98
2023-03-12T08:13:07.587Z,1.97
2023-03-12T08:15:35.548Z,2.10
2023-03-12T08:18:03.495Z,2.78
2023-03-12T08:20:31.639Z,2.98
2023-03-12T08:22:59.600Z,3.09
2023-03-12T08:25:27.755Z,3.16
2023-03-12T08:27:57.064Z,2.84
2023-03-12T08:30:25.052Z,3.02
2023-03-12T08:32:53.055Z,3.28
2023-03-12T08:35:20.993Z,3.38
2023-03-12T08:37:48.964Z,3.37
2023-03-12T08:40:17.229Z,3.36
2023-03-12T08:42:45.976Z,3.61
2023-03-12T08:45:15.856Z,3.56
2023-03-12T08:47:44.691Z,3.80
2023-03-12T08:50:13.974Z,3.72
2023-03-12T08:52:42.031Z,3.29
2023-03-12T08:55:10.816Z,3.64
2023-03-12T08:57:38.836Z,3.81
2023-03-12T09:00:14.864Z,4.04
2023-03-12T09:02:46.411Z,4.11
2023-03-12T09:05:15.188Z,4.04
2023-03-12T09:07:43.330Z,4.42
2023-03-12T09:10:12.129Z,4.45
2023-03-12T09:12:40.158Z,4.75
2023-03-12T09:15:09.570Z,4.70
2023-03-12T09:17:37.556Z,5.03
2023-03-12T09:20:09.493Z,5.56
2023-03-12T09:22:37.948Z,5.74
2023-03-12T09:25:06.591Z,6.38
2023-03-12T09:27:37.646Z,6.67
2023-03-12T09:30:07.733Z,6.34
2023-03-12T09:32:35.795Z,5.57
2023-03-12T09:35:03.909Z,5.65
2023-03-12T09:37:33.420Z,5.35
2023-03-12T09:40:01.498Z,5.59
2023-03-12T09:42:33.101Z,5.54
2023-03-12T09:45:04.791Z,5.79
2023-03-12T09:47:35.447Z,5.72
2023-03-12T09:50:08.005Z,5.09
2023-03-12T09:52:41.307Z,5.12
2023-03-12T09:55:14.995Z,5.04
2023-03-12T09:57:43.315Z,5.22
2023-03-12T10:00:14.154Z,5.86
2023-03-12T10:03:05.613Z,6.04
2023-03-12T10:05:38.021Z,5.71
2023-03-12T10:08:24.499Z,6.05
2023-03-12T10:10:57.555Z,5.94
2023-03-12T10:13:41.189Z,5.72
2023-03-12T10:16:16.931Z,6.04
2023-03-12T10:19:08.825Z,6.01
2023-03-12T10:21:40.960Z,5.86
2023-03-12T10:24:25.130Z,5.73
2023-03-12T10:26:56.485Z,5.59
2023-03-12T10:29:28.298Z,5.99
2023-03-12T10:31:59.336Z,5.99
2023-03-12T10:34:32.302Z,5.81
2023-03-12T10:37:02.456Z,5.87
2023-03-12T10:39:32.246Z,6.34
2023-03-12T10:42:01.486Z,6.38
2023-03-12T10:44:30.246Z,7.01
2023-03-12T10:47:02.791Z,6.73
2023-03-12T10:49:33.484Z,6.67
2023-03-12T10:52:05.116Z,6.54
2023-03-12T10:54:37.039Z,6.23
2023-03-12T10:57:05.631Z,6.58
2023-03-12T10:59:35.747Z,6.61
2023-03-12T11:02:05.095Z,6.49
2023-03-12T11:04:33.607Z,6.59
2023-03-12T11:07:20.086Z,6.76
2023-03-12T11:10:08.868Z,6.61
2023-03-12T11:12:39.820Z,6.56
2023-03-12T11:15:20.621Z,6.19
2023-03-12T11:17:48.999Z,5.95
2023-03-12T11:20:27.078Z,6.16
2023-03-12T11:22:55.022Z,6.34
2023-03-12T11:25:25.907Z,6.36
2023-03-12T11:27:55.992Z,6.12
2023-03-12T11:30:28.212Z,6.51
2023-03-12T11:32:58.153Z,6.33
2023-03-12T11:35:35.081Z,6.52
2023-03-12T11:38:08.940Z,6.82
2023-03-12T11:40:54.066Z,6.55
2023-03-12T11:43:43.719Z,6.50
2023-03-12T11:46:36.838Z,6.47
2023-03-12T11:49:14.930Z,6.56
2023-03-12T11:51:48.775Z,6.89
2023-03-12T11:54:39.274Z,6.80
2023-03-12T11:57:14.891Z,6.77
2023-03-12T11:59:55.661Z,6.69
2023-03-12T12:02:37.441Z,6.79
2023-03-12T12:05:32.705Z,6.91
2023-03-12T12:08:10.701Z,6.85
2023-03-12T12:10:45.388Z,6.85
2023-03-12T12:13:19.681Z,6.95
2023-03-12T12:15:54.288Z,6.69
2023-03-12T12:18:44.723Z,6.73
2023-03-12T12:21:25.801Z,6.63
2023-03-12T12:23:58.446Z,6.48
2023-03-12T12:26:31.758Z,6.04
2023-03-12T12:29:14.732Z,5.97
2023-03-12T12:31:47.447Z,6.07
2023-03-12T12:34:33.345Z,6.20
2023-03-12T12:37:14.340Z,6.31
2023-03-12T12:39:46.896Z,6.57
2023-03-12T12:42:19.455Z,6.48
2023-03-12T12:44:50.554Z,6.29
2023-03-12T12:47:20.980Z,6.21
2023-03-12T12:49:50.813Z,6.11
2023-03-12T12:52:21.916Z,6.01
2023-03-12T12:54:56.765Z,6.08
2023-03-12T12:57:29.171Z,6.06
2023-03-12T13:00:11.029Z,6.18
2023-03-12T13:02:40.952Z,6.16
2023-03-12T13:05:20.328Z,6.13
2023-03-12T13:07:48.422Z,6.28
2023-03-12T13:10:53.060Z,6.52
2023-03-12T13:13:27.388Z,6.59
2023-03-12T13:16:22.480Z,6.43
2023-03-12T13:19:01.124Z,6.34
2023-03-12T13:21:35.137Z,6.61
2023-03-12T13:24:13.797Z,6.38
2023-03-12T13:26:51.512Z,6.56
2023-03-12T13:29:37.155Z,6.79
2023-03-12T13:32:09.316Z,7.09
2023-03-12T13:34:48.142Z,6.96
2023-03-12T13:37:22.733Z,6.90
2023-03-12T13:39:52.154Z,6.47
2023-03-12T13:42:39.053Z,6.51
2023-03-12T13:45:24.422Z,6.13
2023-03-12T13:47:58.011Z,6.36
2023-03-12T13:50:26.647Z,6.25
2023-03-12T13:53:03.443Z,6.03
2023-03-12T13:55:32.704Z,6.02
2023-03-12T13:58:07.827Z,5.90
2023-03-12T14:00:39.906Z,5.82
2023-03-12T14:03:13.797Z,5.91
2023-03-12T14:05:49.455Z,5.78
2023-03-12T14:08:40.437Z,5.83
2023-03-12T14:11:20.969Z,5.79
2023-03-12T14:14:15.645Z,5.71
2023-03-12T14:16:45.935Z,5.71
2023-03-12T14:19:16.377Z,5.78
2023-03-12T14:21:46.017Z,6.11
2023-03-12T14:24:23.105Z,6.02
2023-03-12T14:26:51.945Z,6.20
2023-03-12T14:29:22.467Z,6.02
2023-03-12T14:31:51.086Z,6.12
2023-03-12T14:34:22.167Z,6.27
2023-03-12T14:36:54.281Z,6.31
2023-03-12T14:39:28.375Z,6.54
2023-03-12T14:41:59.804Z,6.14
2023-03-12T14:44:29.314Z,5.93
2023-03-12T14:46:58.774Z,5.76
2023-03-12T14:49:28.851Z,5.67
2023-03-12T14:51:57.015Z,5.54
2023-03-12T14:54:26.689Z,5.51
2023-03-12T14:56:54.753Z,5.48
2023-03-12T14:59:25.890Z,5.47
2023-03-12T15:01:53.971Z,5.31
2023-03-12T15:04:23.989Z,5.17
2023-03-12T15:06:55.396Z,5.37
2023-03-12T15:09:26.120Z,5.33
2023-03-12T15:11:55.418Z,5.36
2023-03-12T15:14:24.244Z,5.26
2023-03-12T15:16:52.343Z,5.07
2023-03-12T15:19:26.351Z,4.99
2023-03-12T15:21:55.844Z,5.20
2023-03-12T15:24:23.968Z,5.14
2023-03-12T15:26:52.025Z,5.30
2023-03-12T15:29:26.810Z,5.22
2023-03-12T15:31:56.448Z,5.17
2023-03-12T15:34:32.040Z,5.09
2023-03-12T15:37:03.259Z,5.11
2023-03-12T15:39:32.994Z,5.08
2023-03-12T15:42:09.423Z,5.15
2023-03-12T15:44:45.300Z,5.03
2023-03-12T15:47:15.282Z,5.00
2023-03-12T15:49:43.604Z,4.76
2023-03-12T15:55:09.161Z,4.88
2023-03-12T15:57:46.733Z,4.88
2023-03-12T16:00:22.411Z,4.91
2023-03-12T16:02:53.623Z,4.98
2023-03-12T16:05:23.232Z,4.90
2023-03-12T16:07:51.329Z,4.84
2023-03-12T16:10:22.698Z,4.86
2023-03-12T16:12:51.422Z,4.90
2023-03-12T16:15:23.850Z,4.77
2023-03-12T16:17:51.788Z,4.75
2023-03-12T16:20:20.398Z,4.81
2023-03-12T16:22:48.384Z,4.89
2023-03-12T16:25:16.497Z,4.91
2023-03-12T16:27:49.384Z,4.80
2023-03-12T16:30:19.812Z,4.70
2023-03-12T16:32:47.851Z,4.66
2023-03-12T16:35:17.964Z,4.57
2023-03-12T16:37:46.033Z,4.59
2023-03-12T16:40:23.993Z,4.57
2023-03-12T16:43:02.762Z,4.58
2023-03-12T16:45:32.052Z,4.44
2023-03-12T16:48:01.739Z,4.53
2023-03-12T16:50:30.285Z,4.56
2023-03-12T16:52:58.676Z,4.57
2023-03-12T16:55:28.942Z,4.51
2023-03-12T16:57:59.227Z,4.42
2023-03-12T17:00:30.697Z,4.52
2023-03-12T17:02:59.151Z,4.56
2023-03-12T17:05:27.918Z,4.55
2023-03-12T17:07:56.061Z,4.56
2023-03-12T17:10:24.770Z,4.54
2023-03-12T17:12:53.582Z,4.50
2023-03-12T17:15:23.260Z,4.61
2023-03-12T17:17:52.949Z,4.50
2023-03-12T17:20:22.411Z,4.61
2023-03-12T17:22:50.432Z,4.58
2023-03-12T17:25:22.774Z,4.53
2023-03-12T17:27:50.834Z,4.65
2023-03-12T17:30:19.093Z,4.58
2023-03-12T17:32:47.064Z,4.55
2023-03-12T17:35:16.450Z,4.58
2023-03-12T17:37:44.612Z,4.54
2023-03-12T17:40:13.729Z,4.54
2023-03-12T17:42:41.714Z,4.55
2023-03-12T17:45:10.571Z,4.55
2023-03-12T17:47:39.024Z,4.58
2023-03-12T17:50:08.365Z,4.53
2023-03-12T17:52:37.771Z,4.56
2023-03-12T17:55:07.096Z,4.53
2023-03-12T17:57:34.996Z,4.58
2023-03-12T18:00:04.751Z,4.60
2023-03-12T18:02:32.679Z,4.60
2023-03-12T18:05:00.709Z,4.56
2023-03-12T18:07:28.678Z,4.59
2023-03-12T18:09:57.965Z,4.57
2023-03-12T18:12:26.228Z,4.56
2023-03-12T18:14:54.163Z,4.61
2023-03-12T18:17:22.068Z,4.69
2023-03-12T18:19:49.991Z,4.68
2023-03-12T18:22:19.709Z,4.68
2023-03-12T18:24:47.840Z,4.80
2023-03-12T18:27:17.169Z,4.82
2023-03-12T18:29:45.130Z,4.85
2023-03-12T18:32:13.038Z,4.93
2023-03-12T18:34:42.448Z,4.94
2023-03-12T18:37:10.424Z,4.92
2023-03-12T18:39:38.409Z,4.89
2023-03-12T18:42:06.564Z,5.03
2023-03-12T18:44:35.966Z,4.99
2023-03-12T18:47:03.906Z,5.07
2023-03-12T18:49:31.822Z,5.14
2023-03-12T18:51:59.731Z,5.18
2023-03-12T18:54:27.693Z,5.21
2023-03-12T18:56:55.675Z,5.27
2023-03-12T18:59:23.605Z,5.31
2023-03-12T19:01:53.025Z,5.28
2023-03-12T19:04:21.761Z,5.27
2023-03-12T19:06:51.975Z,5.24
2023-03-12T19:09:20.241Z,5.30
2023-03-12T19:11:48.414Z,5.22
2023-03-12T19:14:16.630Z,5.20
2023-03-12T19:16:44.704Z,5.19
2023-03-12T19:19:14.118Z,5.28
2023-03-12T19:21:42.239Z,5.29
2023-03-12T19:24:10.168Z,5.32
2023-03-12T19:26:38.151Z,5.32
2023-03-12T19:29:06.087Z,5.39
2023-03-12T19:31:35.137Z,5.42
2023-03-12T19:34:03.105Z,5.41
2023-03-12T19:36:32.421Z,5.40
2023-03-12T19:39:02.412Z,5.43
2023-03-12T19:41:32.308Z,5.41
2023-03-12T19:44:00.224Z,5.42
2023-03-12T19:46:28.144Z,5.48
2023-03-12T19:48:56.060Z,5.54
2023-03-12T19:51:23.988Z,5.53
2023-03-12T19:53:53.487Z,5.56
2023-03-12T19:56:21.598Z,5.58
2023-03-12T19:58:49.787Z,5.66
2023-03-12T20:01:18.305Z,5.66
2023-03-12T20:03:46.348Z,5.67
2023-03-12T20:06:14.341Z,5.68
2023-03-12T20:08:42.314Z,5.82
2023-03-12T20:11:11.915Z,5.84
2023-03-12T20:13:39.999Z,5.89
2023-03-12T20:16:08.986Z,5.94
2023-03-12T20:18:37.128Z,5.83
2023-03-12T20:21:05.528Z,5.87
2023-03-12T20:23:33.536Z,5.91
2023-03-12T20:26:01.490Z,5.89
2023-03-12T20:28:30.912Z,5.90
2023-03-12T20:30:58.876Z,5.83
2023-03-12T20:33:26.838Z,5.86
2023-03-12T20:35:56.058Z,5.85
2023-03-12T20:38:24.103Z,5.84
2023-03-12T20:40:51.997Z,5.87
2023-03-12T20:43:20.440Z,6.01
2023-03-12T20:45:50.086Z,6.15
2023-03-12T20:48:18.076Z,6.13
2023-03-12T20:50:46.144Z,6.05
2023-03-12T20:53:14.167Z,6.13
2023-03-12T20:55:42.261Z,6.10
2023-03-12T20:58:10.234Z,6.33
2023-03-12T21:00:38.250Z,6.24
2023-03-12T21:03:07.552Z,6.25
2023-03-12T21:05:35.464Z,6.42
2023-03-12T21:08:03.357Z,6.43
2023-03-12T21:10:31.838Z,6.48
2023-03-12T21:12:59.774Z,6.48
2023-03-12T21:15:28.261Z,6.54
2023-03-12T21:17:57.129Z,6.44
2023-03-12T21:20:26.451Z,6.45
2023-03-12T21:22:54.393Z,6.55
2023-03-12T21:25:22.324Z,6.50
2023-03-12T21:27:51.816Z,6.55
2023-03-12T21:30:20.408Z,6.54
2023-03-12T21:32:48.362Z,6.59
2023-03-12T21:35:16.287Z,6.56
2023-03-12T21:37:45.591Z,6.46
2023-03-12T21:40:14.534Z,6.38
2023-03-12T21:42:42.447Z,6.39
2023-03-12T21:45:11.930Z,6.23
2023-03-12T21:47:40.493Z,6.07
2023-03-12T21:50:09.308Z,6.03
2023-03-12T21:52:43.069Z,5.76
2023-03-12T21:55:12.956Z,5.74
2023-03-12T21:57:40.870Z,5.65
2023-03-12T22:00:12.827Z,5.69
2023-03-12T22:02:41.409Z,5.55
2023-03-12T22:05:10.090Z,5.40
2023-03-12T22:07:38.232Z,5.41
2023-03-12T22:10:07.165Z,5.37
2023-03-12T22:12:36.488Z,5.49
2023-03-12T22:15:04.538Z,5.64
2023-03-12T22:17:32.767Z,5.62
2023-03-12T22:20:00.902Z,5.72
2023-03-12T22:22:28.958Z,5.70
2023-03-12T22:24:56.926Z,5.59
2023-03-12T22:27:24.918Z,5.56
2023-03-12T22:29:56.636Z,5.58
2023-03-12T22:32:24.762Z,5.78
2023-03-12T22:34:52.785Z,6.29
2023-03-12T22:37:20.747Z,6.36
2023-03-12T22:39:48.659Z,6.21
2023-03-12T22:42:16.607Z,6.28
2023-03-12T22:44:44.551Z,6.15
2023-03-12T22:47:13.897Z,6.07
2023-03-12T22:49:41.849Z,6.31
2023-03-12T22:52:09.766Z,6.58
2023-03-12T22:54:37.737Z,6.71
2023-03-12T22:57:05.646Z,6.84
2023-03-12T22:59:33.605Z,6.81
2023-03-12T23:02:01.599Z,6.78
2023-03-12T23:04:30.971Z,6.83
2023-03-12T23:07:12.842Z,6.94
2023-03-12T23:09:41.826Z,7.02
2023-03-12T23:12:09.989Z,6.99
2023-03-12T23:14:37.947Z,7.01
2023-03-12T23:17:05.982Z,7.08
2023-03-12T23:19:36.354Z,6.97
2023-03-12T23:22:04.377Z,7.03
2023-03-12T23:24:32.861Z,7.02
2023-03-12T23:27:00.967Z,6.90
2023-03-12T23:29:30.490Z,6.84
2023-03-12T23:31:58.544Z,6.85
2023-03-12T23:34:26.625Z,6.94
2023-03-12T23:36:56.154Z,6.80
2023-03-12T23:39:24.100Z,6.74
2023-03-12T23:41:52.056Z,6.60
2023-03-12T23:44:19.972Z,6.61
2023-03-12T23:46:48.083Z,6.86
2023-03-12T23:49:16.089Z,6.72
2023-03-12T23:51:43.989Z,6.72
2023-03-12T23:54:13.380Z,6.67
2023-03-12T23:56:41.829Z,6.60
2023-03-12T23:59:10.818Z,6.48
